sensor_id;sensor_type;location;lat;lon;timestamp;P1;durP1;ratioP1;P2;durP2;ratioP2
38089;SDS011;23904;52.322;10.232;2023-05-10T00:01:55;11.27;;;5.68;;
38089;SDS011;23904;52.322;10.232;2023-05-10T00:04:21;11.52;;;4.97;;
38089;SDS011;23904;52.322;10.232;2023-05-10T00:06:46;9.32;;;5.40;;
38089;SDS011;23904;52.322;10.232;2023-05-10T00:09:12;9.20;;;5.68;;
38089;SDS011;23904;52.322;10.232;2023-05-10T00:11:38;11.10;;;5.53;;
38089;SDS011;23904;52.322;10.232;2023-05-10T00:14:03;12.02;;;6.35;;
38089;SDS011;23904;52.322;10.232;2023-05-10T00:16:29;10.93;;;6.70;;
38089;SDS011;23904;52.322;10.232;2023-05-10T00:18:55;14.48;;;7.53;;
38089;SDS011;23904;52.322;10.232;2023-05-10T00:21:20;12.13;;;6.57;;
38089;SDS011;23904;52.322;10.232;2023-05-10T00:23:46;15.80;;;7.28;;
38089;SDS011;23904;52.322;10.232;2023-05-10T00:26:11;10.02;;;6.25;;
38089;SDS011;23904;52.322;10.232;2023-05-10T00:28:37;11.02;;;6.28;;
38089;SDS011;23904;52.322;10.232;2023-05-10T00:31:02;14.07;;;7.57;;
38089;SDS011;23904;52.322;10.232;2023-05-10T00:33:28;15.00;;;8.00;;
38089;SDS011;23904;52.322;10.232;2023-05-10T00:35:53;13.45;;;6.82;;
38089;SDS011;23904;52.322;10.232;2023-05-10T00:38:19;14.18;;;7.20;;
38089;SDS011;23904;52.322;10.232;2023-05-10T00:40:44;18.58;;;6.90;;
38089;SDS011;23904;52.322;10.232;2023-05-10T00:43:10;11.70;;;6.72;;
38089;SDS011;23904;52.322;10.232;2023-05-10T00:45:36;9.35;;;6.10;;
38089;SDS011;23904;52.322;10.232;2023-05-10T00:48:02;13.55;;;6.82;;
38089;SDS011;23904;52.322;10.232;2023-05-10T00:50:30;8.82;;;6.43;;
38089;SDS011;23904;52.322;10.232;2023-05-10T00:52:57;11.95;;;6.80;;
38089;SDS011;23904;52.322;10.232;2023-05-10T00:55:24;15.27;;;6.45;;
38089;SDS011;23904;52.322;10.232;2023-05-10T00:57:50;9.93;;;6.40;;
38089;SDS011;23904;52.322;10.232;2023-05-10T01:00:17;8.35;;;6.03;;
38089;SDS011;23904;52.322;10.232;2023-05-10T01:02:46;10.38;;;6.20;;
38089;SDS011;23904;52.322;10.232;2023-05-10T01:05:13;9.68;;;5.75;;
38089;SDS011;23904;52.322;10.232;2023-05-10T01:07:39;9.95;;;6.63;;
38089;SDS011;23904;52.322;10.232;2023-05-10T01:10:05;8.75;;;6.05;;
38089;SDS011;23904;52.322;10.232;2023-05-10T01:12:33;9.43;;;5.78;;
38089;SDS011;23904;52.322;10.232;2023-05-10T01:15:02;8.80;;;5.45;;
38089;SDS011;23904;52.322;10.232;2023-05-10T01:17:30;11.43;;;5.72;;
38089;SDS011;23904;52.322;10.232;2023-05-10T01:19:56;10.98;;;6.45;;
38089;SDS011;23904;52.322;10.232;2023-05-10T01:28:15;10.63;;;5.68;;
38089;SDS011;23904;52.322;10.232;2023-05-10T01:34:02;8.75;;;5.60;;
38089;SDS011;23904;52.322;10.232;2023-05-10T01:36:40;7.75;;;5.80;;
38089;SDS011;23904;52.322;10.232;2023-05-10T01:39:20;8.27;;;6.13;;
38089;SDS011;23904;52.322;10.232;2023-05-10T01:41:59;11.23;;;5.78;;
38089;SDS011;23904;52.322;10.232;2023-05-10T01:47:53;12.15;;;6.00;;
38089;SDS011;23904;52.322;10.232;2023-05-10T01:50:30;11.73;;;6.85;;
38089;SDS011;23904;52.322;10.232;2023-05-10T01:52:58;10.52;;;6.30;;
38089;SDS011;23904;52.322;10.232;2023-05-10T01:55:28;10.88;;;5.50;;
38089;SDS011;23904;52.322;10.232;2023-05-10T01:58:02;13.77;;;5.93;;
38089;SDS011;23904;52.322;10.232;2023-05-10T02:00:33;11.95;;;6.00;;
38089;SDS011;23904;52.322;10.232;2023-05-10T02:03:01;8.73;;;5.75;;
38089;SDS011;23904;52.322;10.232;2023-05-10T02:05:31;13.30;;;6.20;;
38089;SDS011;23904;52.322;10.232;2023-05-10T02:07:58;9.77;;;6.13;;
38089;SDS011;23904;52.322;10.232;2023-05-10T02:10:27;9.02;;;6.38;;
38089;SDS011;23904;52.322;10.232;2023-05-10T02:12:53;14.40;;;7.13;;
38089;SDS011;23904;52.322;10.232;2023-05-10T02:15:23;9.85;;;5.95;;
38089;SDS011;23904;52.322;10.232;2023-05-10T02:17:51;9.45;;;6.93;;
38089;SDS011;23904;52.322;10.232;2023-05-10T02:20:19;9.90;;;6.25;;
38089;SDS011;23904;52.322;10.232;2023-05-10T02:22:48;10.18;;;6.40;;
38089;SDS011;23904;52.322;10.232;2023-05-10T02:25:15;8.02;;;5.53;;
38089;SDS011;23904;52.322;10.232;2023-05-10T02:27:44;8.35;;;6.10;;
38089;SDS011;23904;52.322;10.232;2023-05-10T02:30:12;9.43;;;6.00;;
38089;SDS011;23904;52.322;10.232;2023-05-10T02:32:38;10.88;;;7.43;;
38089;SDS011;23904;52.322;10.232;2023-05-10T02:35:05;9.10;;;6.80;;
38089;SDS011;23904;52.322;10.232;2023-05-10T02:37:32;14.05;;;7.30;;
38089;SDS011;23904;52.322;10.232;2023-05-10T02:39:59;10.93;;;6.18;;
38089;SDS011;23904;52.322;10.232;2023-05-10T02:42:28;10.32;;;6.95;;
38089;SDS011;23904;52.322;10.232;2023-05-10T02:45:02;11.30;;;7.30;;
38089;SDS011;23904;52.322;10.232;2023-05-10T02:47:33;7.63;;;6.10;;
38089;SDS011;23904;52.322;10.232;2023-05-10T02:49:59;12.52;;;5.82;;
38089;SDS011;23904;52.322;10.232;2023-05-10T02:52:29;8.65;;;6.25;;
38089;SDS011;23904;52.322;10.232;2023-05-10T02:55:04;7.72;;;5.47;;
38089;SDS011;23904;52.322;10.232;2023-05-10T02:57:34;8.82;;;6.20;;
38089;SDS011;23904;52.322;10.232;2023-05-10T03:00:06;9.15;;;5.88;;
38089;SDS011;23904;52.322;10.232;2023-05-10T03:02:33;9.40;;;5.93;;
38089;SDS011;23904;52.322;10.232;2023-05-10T03:04:59;9.85;;;7.13;;
38089;SDS011;23904;52.322;10.232;2023-05-10T03:07:25;9.23;;;6.28;;
38089;SDS011;23904;52.322;10.232;2023-05-10T03:09:51;7.95;;;6.32;;
38089;SDS011;23904;52.322;10.232;2023-05-10T03:12:27;9.27;;;5.78;;
38089;SDS011;23904;52.322;10.232;2023-05-10T03:18:12;9.60;;;6.70;;
38089;SDS011;23904;52.322;10.232;2023-05-10T03:21:04;8.32;;;5.78;;
38089;SDS011;23904;52.322;10.232;2023-05-10T03:23:34;10.77;;;7.22;;
38089;SDS011;23904;52.322;10.232;2023-05-10T03:26:05;10.88;;;6.93;;
38089;SDS011;23904;52.322;10.232;2023-05-10T03:28:32;12.55;;;6.90;;
38089;SDS011;23904;52.322;10.232;2023-05-10T03:31:00;10.13;;;6.15;;
38089;SDS011;23904;52.322;10.232;2023-05-10T03:33:27;10.07;;;6.25;;
38089;SDS011;23904;52.322;10.232;2023-05-10T03:35:54;8.07;;;6.05;;
38089;SDS011;23904;52.322;10.232;2023-05-10T03:38:19;10.18;;;6.40;;
38089;SDS011;23904;52.322;10.232;2023-05-10T03:40:45;14.60;;;6.03;;
38089;SDS011;23904;52.322;10.232;2023-05-10T03:43:10;8.25;;;5.18;;
38089;SDS011;23904;52.322;10.232;2023-05-10T03:45:36;14.60;;;6.13;;
38089;SDS011;23904;52.322;10.232;2023-05-10T03:48:02;9.95;;;6.22;;
38089;SDS011;23904;52.322;10.232;2023-05-10T03:50:28;10.25;;;5.75;;
38089;SDS011;23904;52.322;10.232;2023-05-10T03:52:53;8.30;;;6.20;;
38089;SDS011;23904;52.322;10.232;2023-05-10T03:55:19;11.98;;;7.15;;
38089;SDS011;23904;52.322;10.232;2023-05-10T03:57:44;9.50;;;6.20;;
38089;SDS011;23904;52.322;10.232;2023-05-10T04:00:10;10.10;;;6.85;;
38089;SDS011;23904;52.322;10.232;2023-05-10T04:02:36;11.07;;;7.07;;
38089;SDS011;23904;52.322;10.232;2023-05-10T04:05:02;11.13;;;7.25;;
38089;SDS011;23904;52.322;10.232;2023-05-10T04:07:28;13.95;;;6.93;;
38089;SDS011;23904;52.322;10.232;2023-05-10T04:09:54;13.63;;;8.38;;
38089;SDS011;23904;52.322;10.232;2023-05-10T04:12:19;10.05;;;6.57;;
38089;SDS011;23904;52.322;10.232;2023-05-10T04:14:45;16.15;;;7.20;;
38089;SDS011;23904;52.322;10.232;2023-05-10T04:17:10;18.27;;;8.23;;
38089;SDS011;23904;52.322;10.232;2023-05-10T04:19:36;13.27;;;8.07;;
38089;SDS011;23904;52.322;10.232;2023-05-10T04:22:02;12.95;;;7.70;;
38089;SDS011;23904;52.322;10.232;2023-05-10T04:24:27;11.70;;;7.35;;
38089;SDS011;23904;52.322;10.232;2023-05-10T04:26:53;14.25;;;7.28;;
38089;SDS011;23904;52.322;10.232;2023-05-10T04:29:20;12.95;;;6.95;;
38089;SDS011;23904;52.322;10.232;2023-05-10T04:31:45;13.00;;;7.85;;
38089;SDS011;23904;52.322;10.232;2023-05-10T04:34:11;12.27;;;7.75;;
38089;SDS011;23904;52.322;10.232;2023-05-10T04:36:36;11.25;;;7.20;;
38089;SDS011;23904;52.322;10.232;2023-05-10T04:39:02;15.35;;;7.60;;
38089;SDS011;23904;52.322;10.232;2023-05-10T04:41:29;12.82;;;7.28;;
38089;SDS011;23904;52.322;10.232;2023-05-10T04:43:55;14.65;;;7.85;;
38089;SDS011;23904;52.322;10.232;2023-05-10T04:46:21;12.63;;;7.18;;
38089;SDS011;23904;52.322;10.232;2023-05-10T04:48:46;12.35;;;7.13;;
38089;SDS011;23904;52.322;10.232;2023-05-10T04:51:12;15.82;;;8.02;;
38089;SDS011;23904;52.322;10.232;2023-05-10T04:53:38;12.02;;;7.55;;
38089;SDS011;23904;52.322;10.232;2023-05-10T04:56:06;15.82;;;8.05;;
38089;SDS011;23904;52.322;10.232;2023-05-10T04:58:32;12.05;;;8.07;;
38089;SDS011;23904;52.322;10.232;2023-05-10T05:01:04;14.23;;;8.68;;
38089;SDS011;23904;52.322;10.232;2023-05-10T05:03:32;13.50;;;8.57;;
38089;SDS011;23904;52.322;10.232;2023-05-10T05:05:58;13.90;;;8.55;;
38089;SDS011;23904;52.322;10.232;2023-05-10T05:08:23;14.43;;;9.07;;
38089;SDS011;23904;52.322;10.232;2023-05-10T05:10:49;16.90;;;9.63;;
38089;SDS011;23904;52.322;10.232;2023-05-10T05:13:15;21.35;;;9.05;;
38089;SDS011;23904;52.322;10.232;2023-05-10T05:15:40;19.85;;;9.05;;
38089;SDS011;23904;52.322;10.232;2023-05-10T05:18:06;13.10;;;8.70;;
38089;SDS011;23904;52.322;10.232;2023-05-10T05:20:32;13.82;;;8.77;;
38089;SDS011;23904;52.322;10.232;2023-05-10T05:22:59;11.75;;;8.85;;
38089;SDS011;23904;52.322;10.232;2023-05-10T05:25:24;16.75;;;9.68;;
38089;SDS011;23904;52.322;10.232;2023-05-10T05:27:50;15.38;;;9.57;;
38089;SDS011;23904;52.322;10.232;2023-05-10T05:30:15;16.80;;;10.38;;
38089;SDS011;23904;52.322;10.232;2023-05-10T05:32:41;12.38;;;8.70;;
38089;SDS011;23904;52.322;10.232;2023-05-10T05:35:07;13.80;;;9.63;;
38089;SDS011;23904;52.322;10.232;2023-05-10T05:37:33;13.30;;;9.35;;
38089;SDS011;23904;52.322;10.232;2023-05-10T05:39:58;14.27;;;10.02;;
38089;SDS011;23904;52.322;10.232;2023-05-10T05:42:26;14.88;;;8.85;;
38089;SDS011;23904;52.322;10.232;2023-05-10T05:44:51;17.75;;;9.07;;
38089;SDS011;23904;52.322;10.232;2023-05-10T05:47:17;15.43;;;8.85;;
38089;SDS011;23904;52.322;10.232;2023-05-10T05:49:42;14.30;;;8.70;;
38089;SDS011;23904;52.322;10.232;2023-05-10T05:52:10;12.88;;;8.88;;
38089;SDS011;23904;52.322;10.232;2023-05-10T05:54:36;12.07;;;8.27;;
38089;SDS011;23904;52.322;10.232;2023-05-10T05:57:02;11.30;;;8.13;;
38089;SDS011;23904;52.322;10.232;2023-05-10T05:59:27;13.98;;;9.93;;
38089;SDS011;23904;52.322;10.232;2023-05-10T06:01:53;12.98;;;9.30;;
38089;SDS011;23904;52.322;10.232;2023-05-10T06:04:19;17.25;;;10.05;;
38089;SDS011;23904;52.322;10.232;2023-05-10T06:06:45;23.85;;;9.70;;
38089;SDS011;23904;52.322;10.232;2023-05-10T06:09:11;18.25;;;9.38;;
38089;SDS011;23904;52.322;10.232;2023-05-10T06:11:36;17.05;;;9.55;;
38089;SDS011;23904;52.322;10.232;2023-05-10T06:14:02;13.10;;;9.63;;
38089;SDS011;23904;52.322;10.232;2023-05-10T06:16:29;12.40;;;9.48;;
38089;SDS011;23904;52.322;10.232;2023-05-10T06:18:55;14.75;;;9.35;;
38089;SDS011;23904;52.322;10.232;2023-05-10T06:21:21;13.18;;;9.35;;
38089;SDS011;23904;52.322;10.232;2023-05-10T06:23:47;13.63;;;10.48;;
38089;SDS011;23904;52.322;10.232;2023-05-10T06:26:12;14.65;;;10.25;;
38089;SDS011;23904;52.322;10.232;2023-05-10T06:28:38;11.30;;;9.20;;
38089;SDS011;23904;52.322;10.232;2023-05-10T06:31:05;14.50;;;9.73;;
38089;SDS011;23904;52.322;10.232;2023-05-10T06:33:31;19.65;;;10.48;;
38089;SDS011;23904;52.322;10.232;2023-05-10T06:35:57;16.92;;;11.45;;
38089;SDS011;23904;52.322;10.232;2023-05-10T06:38:23;19.00;;;11.95;;
38089;SDS011;23904;52.322;10.232;2023-05-10T06:40:48;15.52;;;11.45;;
38089;SDS011;23904;52.322;10.232;2023-05-10T06:43:14;15.23;;;10.70;;
38089;SDS011;23904;52.322;10.232;2023-05-10T06:45:40;14.40;;;9.90;;
38089;SDS011;23904;52.322;10.232;2023-05-10T06:48:06;15.93;;;11.10;;
38089;SDS011;23904;52.322;10.232;2023-05-10T06:50:32;19.95;;;11.55;;
38089;SDS011;23904;52.322;10.232;2023-05-10T06:52:58;14.93;;;11.10;;
38089;SDS011;23904;52.322;10.232;2023-05-10T06:55:25;17.17;;;10.55;;
38089;SDS011;23904;52.322;10.232;2023-05-10T06:57:51;13.73;;;10.52;;
38089;SDS011;23904;52.322;10.232;2023-05-10T07:00:17;18.30;;;11.10;;
38089;SDS011;23904;52.322;10.232;2023-05-10T07:02:43;15.90;;;11.55;;
38089;SDS011;23904;52.322;10.232;2023-05-10T07:05:09;14.55;;;11.80;;
38089;SDS011;23904;52.322;10.232;2023-05-10T07:07:34;20.10;;;12.55;;
38089;SDS011;23904;52.322;10.232;2023-05-10T07:10:00;15.45;;;11.48;;
38089;SDS011;23904;52.322;10.232;2023-05-10T07:12:27;15.90;;;12.13;;
38089;SDS011;23904;52.322;10.232;2023-05-10T07:14:52;15.35;;;12.02;;
38089;SDS011;23904;52.322;10.232;2023-05-10T07:17:18;18.13;;;12.75;;
38089;SDS011;23904;52.322;10.232;2023-05-10T07:19:43;15.00;;;11.13;;
38089;SDS011;23904;52.322;10.232;2023-05-10T07:22:09;14.65;;;11.40;;
38089;SDS011;23904;52.322;10.232;2023-05-10T07:24:35;14.10;;;10.85;;
38089;SDS011;23904;52.322;10.232;2023-05-10T07:27:00;13.07;;;11.05;;
38089;SDS011;23904;52.322;10.232;2023-05-10T07:29:26;16.98;;;12.60;;
38089;SDS011;23904;52.322;10.232;2023-05-10T07:31:51;14.57;;;11.10;;
38089;SDS011;23904;52.322;10.232;2023-05-10T07:34:17;16.27;;;10.75;;
38089;SDS011;23904;52.322;10.232;2023-05-10T07:36:43;14.50;;;11.07;;
38089;SDS011;23904;52.322;10.232;2023-05-10T07:39:08;14.10;;;11.45;;
38089;SDS011;23904;52.322;10.232;2023-05-10T07:41:34;13.95;;;10.77;;
38089;SDS011;23904;52.322;10.232;2023-05-10T07:44:00;16.17;;;10.73;;
38089;SDS011;23904;52.322;10.232;2023-05-10T07:46:25;12.88;;;10.30;;
38089;SDS011;23904;52.322;10.232;2023-05-10T07:48:51;16.20;;;10.38;;
38089;SDS011;23904;52.322;10.232;2023-05-10T07:51:16;14.48;;;10.50;;
38089;SDS011;23904;52.322;10.232;2023-05-10T07:53:42;14.80;;;9.95;;
38089;SDS011;23904;52.322;10.232;2023-05-10T07:56:21;11.63;;;9.95;;
38089;SDS011;23904;52.322;10.232;2023-05-10T07:58:52;12.20;;;9.27;;
38089;SDS011;23904;52.322;10.232;2023-05-10T08:01:19;13.18;;;9.25;;
38089;SDS011;23904;52.322;10.232;2023-05-10T08:03:45;10.48;;;7.88;;
38089;SDS011;23904;52.322;10.232;2023-05-10T08:06:10;16.95;;;8.45;;
38089;SDS011;23904;52.322;10.232;2023-05-10T08:08:36;11.48;;;8.32;;
38089;SDS011;23904;52.322;10.232;2023-05-10T08:11:01;10.05;;;8.57;;
38089;SDS011;23904;52.322;10.232;2023-05-10T08:13:28;14.10;;;8.95;;
38089;SDS011;23904;52.322;10.232;2023-05-10T08:15:54;9.68;;;7.75;;
38089;SDS011;23904;52.322;10.232;2023-05-10T08:18:20;9.32;;;7.10;;
38089;SDS011;23904;52.322;10.232;2023-05-10T08:20:45;9.68;;;7.28;;
38089;SDS011;23904;52.322;10.232;2023-05-10T08:23:14;9.82;;;7.57;;
38089;SDS011;23904;52.322;10.232;2023-05-10T08:25:40;12.68;;;7.85;;
38089;SDS011;23904;52.322;10.232;2023-05-10T08:28:05;9.55;;;7.47;;
38089;SDS011;23904;52.322;10.232;2023-05-10T08:30:31;12.52;;;6.97;;
38089;SDS011;23904;52.322;10.232;2023-05-10T08:32:57;9.38;;;6.85;;
38089;SDS011;23904;52.322;10.232;2023-05-10T08:35:22;8.20;;;6.70;;
38089;SDS011;23904;52.322;10.232;2023-05-10T08:37:48;9.93;;;6.30;;
38089;SDS011;23904;52.322;10.232;2023-05-10T08:40:13;9.63;;;6.20;;
38089;SDS011;23904;52.322;10.232;2023-05-10T08:42:41;8.00;;;6.28;;
38089;SDS011;23904;52.322;10.232;2023-05-10T08:45:15;9.20;;;6.75;;
38089;SDS011;23904;52.322;10.232;2023-05-10T08:47:42;7.90;;;6.03;;
38089;SDS011;23904;52.322;10.232;2023-05-10T08:50:08;9.40;;;6.47;;
38089;SDS011;23904;52.322;10.232;2023-05-10T08:52:36;7.70;;;6.30;;
38089;SDS011;23904;52.322;10.232;2023-05-10T08:55:06;8.35;;;5.53;;
38089;SDS011;23904;52.322;10.232;2023-05-10T08:57:32;9.32;;;5.72;;
38089;SDS011;23904;52.322;10.232;2023-05-10T08:59:58;10.75;;;6.70;;
38089;SDS011;23904;52.322;10.232;2023-05-10T09:02:25;9.45;;;5.82;;
38089;SDS011;23904;52.322;10.232;2023-05-10T09:04:51;7.28;;;5.15;;
38089;SDS011;23904;52.322;10.232;2023-05-10T09:07:17;6.55;;;5.03;;
38089;SDS011;23904;52.322;10.232;2023-05-10T09:09:45;8.20;;;5.47;;
38089;SDS011;23904;52.322;10.232;2023-05-10T09:12:11;9.32;;;5.80;;
38089;SDS011;23904;52.322;10.232;2023-05-10T09:14:38;5.15;;;3.80;;
38089;SDS011;23904;52.322;10.232;2023-05-10T09:17:04;7.15;;;4.88;;
38089;SDS011;23904;52.322;10.232;2023-05-10T09:19:29;5.55;;;3.80;;
38089;SDS011;23904;52.322;10.232;2023-05-10T09:21:55;7.80;;;3.88;;
38089;SDS011;23904;52.322;10.232;2023-05-10T09:24:24;5.85;;;3.20;;
38089;SDS011;23904;52.322;10.232;2023-05-10T09:26:54;5.25;;;3.10;;
38089;SDS011;23904;52.322;10.232;2023-05-10T09:29:23;3.55;;;2.90;;
38089;SDS011;23904;52.322;10.232;2023-05-10T09:31:49;6.55;;;2.78;;
38089;SDS011;23904;52.322;10.232;2023-05-10T09:34:22;7.35;;;2.88;;
38089;SDS011;23904;52.322;10.232;2023-05-10T09:36:55;5.03;;;2.40;;
38089;SDS011;23904;52.322;10.232;2023-05-10T09:42:08;4.45;;;2.67;;
38089;SDS011;23904;52.322;10.232;2023-05-10T09:44:35;4.60;;;2.20;;
38089;SDS011;23904;52.322;10.232;2023-05-10T09:47:02;3.35;;;2.25;;
38089;SDS011;23904;52.322;10.232;2023-05-10T09:49:28;3.08;;;2.45;;
38089;SDS011;23904;52.322;10.232;2023-05-10T09:52:04;3.40;;;2.38;;
38089;SDS011;23904;52.322;10.232;2023-05-10T09:54:33;2.83;;;2.03;;
38089;SDS011;23904;52.322;10.232;2023-05-10T09:56:59;4.05;;;2.13;;
38089;SDS011;23904;52.322;10.232;2023-05-10T09:59:26;2.90;;;2.10;;
38089;SDS011;23904;52.322;10.232;2023-05-10T10:01:55;3.78;;;2.40;;
38089;SDS011;23904;52.322;10.232;2023-05-10T10:04:22;3.30;;;2.47;;
38089;SDS011;23904;52.322;10.232;2023-05-10T10:06:58;2.80;;;2.00;;
38089;SDS011;23904;52.322;10.232;2023-05-10T10:09:25;3.30;;;2.38;;
38089;SDS011;23904;52.322;10.232;2023-05-10T10:11:52;4.40;;;2.22;;
38089;SDS011;23904;52.322;10.232;2023-05-10T10:14:18;3.53;;;2.47;;
38089;SDS011;23904;52.322;10.232;2023-05-10T10:16:45;3.35;;;2.33;;
38089;SDS011;23904;52.322;10.232;2023-05-10T10:19:11;6.60;;;2.35;;
38089;SDS011;23904;52.322;10.232;2023-05-10T10:21:37;4.10;;;3.35;;
38089;SDS011;23904;52.322;10.232;2023-05-10T10:24:03;3.80;;;2.75;;
38089;SDS011;23904;52.322;10.232;2023-05-10T10:26:30;5.00;;;2.85;;
38089;SDS011;23904;52.322;10.232;2023-05-10T10:29:07;3.60;;;2.90;;
38089;SDS011;23904;52.322;10.232;2023-05-10T10:34:42;5.22;;;2.55;;
38089;SDS011;23904;52.322;10.232;2023-05-10T10:37:08;3.53;;;2.50;;
38089;SDS011;23904;52.322;10.232;2023-05-10T10:39:33;4.18;;;2.83;;
38089;SDS011;23904;52.322;10.232;2023-05-10T10:42:01;8.20;;;5.13;;
38089;SDS011;23904;52.322;10.232;2023-05-10T10:49:27;4.80;;;3.15;;
38089;SDS011;23904;52.322;10.232;2023-05-10T10:52:18;3.97;;;2.95;;
38089;SDS011;23904;52.322;10.232;2023-05-10T11:00:22;3.50;;;2.70;;
38089;SDS011;23904;52.322;10.232;2023-05-10T11:03:10;5.85;;;2.67;;
38089;SDS011;23904;52.322;10.232;2023-05-10T11:05:47;5.00;;;2.65;;
38089;SDS011;23904;52.322;10.232;2023-05-10T11:13:31;4.47;;;2.42;;
38089;SDS011;23904;52.322;10.232;2023-05-10T11:16:13;4.30;;;2.63;;
38089;SDS011;23904;52.322;10.232;2023-05-10T11:18:59;4.45;;;2.83;;
38089;SDS011;23904;52.322;10.232;2023-05-10T11:21:27;4.63;;;2.28;;
38089;SDS011;23904;52.322;10.232;2023-05-10T11:23:55;5.15;;;3.00;;
38089;SDS011;23904;52.322;10.232;2023-05-10T11:26:40;5.65;;;2.90;;
38089;SDS011;23904;52.322;10.232;2023-05-10T11:29:07;6.18;;;2.90;;
38089;SDS011;23904;52.322;10.232;2023-05-10T11:31:32;4.25;;;2.75;;
38089;SDS011;23904;52.322;10.232;2023-05-10T11:33:58;5.50;;;3.38;;
38089;SDS011;23904;52.322;10.232;2023-05-10T11:36:37;3.80;;;2.85;;
38089;SDS011;23904;52.322;10.232;2023-05-10T11:39:03;4.35;;;2.85;;
38089;SDS011;23904;52.322;10.232;2023-05-10T11:41:30;6.07;;;3.00;;
38089;SDS011;23904;52.322;10.232;2023-05-10T11:43:56;8.70;;;3.25;;
38089;SDS011;23904;52.322;10.232;2023-05-10T11:46:24;7.43;;;3.17;;
38089;SDS011;23904;52.322;10.232;2023-05-10T11:48:52;4.53;;;2.58;;
38089;SDS011;23904;52.322;10.232;2023-05-10T11:51:22;3.35;;;2.22;;
38089;SDS011;23904;52.322;10.232;2023-05-10T11:53:50;5.03;;;2.42;;
38089;SDS011;23904;52.322;10.232;2023-05-10T11:56:17;8.63;;;2.55;;
38089;SDS011;23904;52.322;10.232;2023-05-10T11:58:43;4.65;;;2.50;;
38089;SDS011;23904;52.322;10.232;2023-05-10T12:01:09;4.13;;;2.17;;
38089;SDS011;23904;52.322;10.232;2023-05-10T12:03:35;3.17;;;2.20;;
38089;SDS011;23904;52.322;10.232;2023-05-10T12:06:02;2.42;;;1.77;;
38089;SDS011;23904;52.322;10.232;2023-05-10T12:08:29;6.35;;;2.13;;
38089;SDS011;23904;52.322;10.232;2023-05-10T12:11:06;4.68;;;2.47;;
38089;SDS011;23904;52.322;10.232;2023-05-10T12:13:40;4.65;;;2.08;;
38089;SDS011;23904;52.322;10.232;2023-05-10T12:18:40;4.15;;;2.60;;
38089;SDS011;23904;52.322;10.232;2023-05-10T12:21:06;4.57;;;2.45;;
38089;SDS011;23904;52.322;10.232;2023-05-10T12:23:32;4.20;;;2.28;;
38089;SDS011;23904;52.322;10.232;2023-05-10T12:26:04;3.35;;;2.08;;
38089;SDS011;23904;52.322;10.232;2023-05-10T12:28:30;3.60;;;2.93;;
38089;SDS011;23904;52.322;10.232;2023-05-10T12:30:58;4.95;;;2.72;;
38089;SDS011;23904;52.322;10.232;2023-05-10T12:33:26;2.78;;;1.85;;
38089;SDS011;23904;52.322;10.232;2023-05-10T12:35:52;3.70;;;1.90;;
38089;SDS011;23904;52.322;10.232;2023-05-10T12:41:00;4.97;;;2.20;;
38089;SDS011;23904;52.322;10.232;2023-05-10T12:43:31;4.10;;;2.38;;
38089;SDS011;23904;52.322;10.232;2023-05-10T12:45:57;4.60;;;2.47;;
38089;SDS011;23904;52.322;10.232;2023-05-10T12:48:23;3.70;;;2.38;;
38089;SDS011;23904;52.322;10.232;2023-05-10T12:50:49;6.70;;;2.20;;
38089;SDS011;23904;52.322;10.232;2023-05-10T12:53:15;3.55;;;2.08;;
38089;SDS011;23904;52.322;10.232;2023-05-10T12:55:42;4.75;;;3.28;;
38089;SDS011;23904;52.322;10.232;2023-05-10T12:58:08;4.72;;;2.25;;
38089;SDS011;23904;52.322;10.232;2023-05-10T13:00:33;5.75;;;2.50;;
38089;SDS011;23904;52.322;10.232;2023-05-10T13:02:59;5.32;;;2.17;;
38089;SDS011;23904;52.322;10.232;2023-05-10T13:05:25;3.30;;;2.33;;
38089;SDS011;23904;52.322;10.232;2023-05-10T13:07:50;3.55;;;2.17;;
38089;SDS011;23904;52.322;10.232;2023-05-10T13:10:16;4.05;;;2.10;;
38089;SDS011;23904;52.322;10.232;2023-05-10T13:12:42;5.47;;;3.15;;
38089;SDS011;23904;52.322;10.232;2023-05-10T13:15:07;3.67;;;2.55;;
38089;SDS011;23904;52.322;10.232;2023-05-10T13:17:33;5.70;;;3.17;;
38089;SDS011;23904;52.322;10.232;2023-05-10T13:19:59;5.47;;;2.60;;
38089;SDS011;23904;52.322;10.232;2023-05-10T13:22:24;4.75;;;2.50;;
38089;SDS011;23904;52.322;10.232;2023-05-10T13:24:50;3.67;;;2.40;;
38089;SDS011;23904;52.322;10.232;2023-05-10T13:27:16;3.08;;;2.15;;
38089;SDS011;23904;52.322;10.232;2023-05-10T13:29:41;8.50;;;3.17;;
38089;SDS011;23904;52.322;10.232;2023-05-10T13:32:07;7.10;;;2.75;;
38089;SDS011;23904;52.322;10.232;2023-05-10T13:34:32;4.00;;;2.45;;
38089;SDS011;23904;52.322;10.232;2023-05-10T13:37:00;3.95;;;1.95;;
38089;SDS011;23904;52.322;10.232;2023-05-10T13:39:26;4.45;;;3.00;;
38089;SDS011;23904;52.322;10.232;2023-05-10T13:41:52;5.40;;;2.95;;
38089;SDS011;23904;52.322;10.232;2023-05-10T13:44:17;5.40;;;2.90;;
38089;SDS011;23904;52.322;10.232;2023-05-10T13:46:43;5.25;;;3.10;;
38089;SDS011;23904;52.322;10.232;2023-05-10T13:49:09;4.72;;;2.95;;
38089;SDS011;23904;52.322;10.232;2023-05-10T13:51:34;3.38;;;2.50;;
38089;SDS011;23904;52.322;10.232;2023-05-10T13:54:01;4.93;;;3.55;;
38089;SDS011;23904;52.322;10.232;2023-05-10T13:56:27;5.20;;;2.83;;
38089;SDS011;23904;52.322;10.232;2023-05-10T13:58:53;5.07;;;3.10;;
38089;SDS011;23904;52.322;10.232;2023-05-10T14:01:18;6.28;;;3.42;;
38089;SDS011;23904;52.322;10.232;2023-05-10T14:03:44;8.52;;;4.97;;
38089;SDS011;23904;52.322;10.232;2023-05-10T14:06:09;4.78;;;3.15;;
38089;SDS011;23904;52.322;10.232;2023-05-10T14:08:35;7.18;;;3.03;;
38089;SDS011;23904;52.322;10.232;2023-05-10T14:11:01;6.60;;;4.03;;
38089;SDS011;23904;52.322;10.232;2023-05-10T14:13:27;5.00;;;3.78;;
38089;SDS011;23904;52.322;10.232;2023-05-10T14:15:53;6.80;;;3.90;;
38089;SDS011;23904;52.322;10.232;2023-05-10T14:18:19;6.35;;;3.63;;
38089;SDS011;23904;52.322;10.232;2023-05-10T14:20:45;4.68;;;3.65;;
38089;SDS011;23904;52.322;10.232;2023-05-10T14:23:10;6.70;;;4.00;;
38089;SDS011;23904;52.322;10.232;2023-05-10T14:25:37;5.20;;;3.85;;
38089;SDS011;23904;52.322;10.232;2023-05-10T14:28:04;6.80;;;3.88;;
38089;SDS011;23904;52.322;10.232;2023-05-10T14:30:31;7.03;;;4.45;;
38089;SDS011;23904;52.322;10.232;2023-05-10T14:32:57;6.43;;;4.30;;
38089;SDS011;23904;52.322;10.232;2023-05-10T14:35:23;6.15;;;3.60;;
38089;SDS011;23904;52.322;10.232;2023-05-10T14:37:49;5.63;;;3.65;;
38089;SDS011;23904;52.322;10.232;2023-05-10T14:40:15;5.18;;;3.33;;
38089;SDS011;23904;52.322;10.232;2023-05-10T14:42:42;6.47;;;2.63;;
38089;SDS011;23904;52.322;10.232;2023-05-10T14:45:08;4.07;;;2.95;;
38089;SDS011;23904;52.322;10.232;2023-05-10T14:47:35;5.40;;;2.85;;
38089;SDS011;23904;52.322;10.232;2023-05-10T14:50:00;6.78;;;3.95;;
38089;SDS011;23904;52.322;10.232;2023-05-10T14:52:26;13.63;;;8.10;;
38089;SDS011;23904;52.322;10.232;2023-05-10T14:54:52;8.55;;;5.03;;
38089;SDS011;23904;52.322;10.232;2023-05-10T14:57:18;8.05;;;3.75;;
38089;SDS011;23904;52.322;10.232;2023-05-10T14:59:44;6.57;;;2.65;;
38089;SDS011;23904;52.322;10.232;2023-05-10T15:02:09;10.15;;;4.05;;
38089;SDS011;23904;52.322;10.232;2023-05-10T15:04:35;6.20;;;3.22;;
38089;SDS011;23904;52.322;10.232;2023-05-10T15:07:00;4.65;;;2.80;;
38089;SDS011;23904;52.322;10.232;2023-05-10T15:09:26;3.88;;;2.70;;
38089;SDS011;23904;52.322;10.232;2023-05-10T15:11:55;7.32;;;2.70;;